createdAt,value
2023-03-17T00:01:12.484Z,5.23
2023-03-17T00:06:19.089Z,3.99
2023-03-17T00:11:22.051Z,2.76
2023-03-17T00:16:27.248Z,4.17
2023-03-17T00:21:32.111Z,5.13
2023-03-17T00:26:34.608Z,4.82
2023-03-17T00:31:39.649Z,2.71
2023-03-17T00:36:43.935Z,2.64
2023-03-17T00:46:48.449Z,5.13
2023-03-17T00:51:51.333Z,5.57
2023-03-17T00:56:54.141Z,4.05
2023-03-17T01:01:57.420Z,3.03
2023-03-17T01:07:00.062Z,4.51
2023-03-17T01:12:02.560Z,5.46
2023-03-17T01:17:13.657Z,6.01
2023-03-17T01:22:16.132Z,5.49
2023-03-17T01:27:19.203Z,3.40
2023-03-17T01:32:22.207Z,3.35
2023-03-17T01:37:25.659Z,4.97
2023-03-17T01:42:28.883Z,5.88
2023-03-17T01:47:32.075Z,6.38
2023-03-17T01:52:38.423Z,6.02
2023-03-17T01:57:44.906Z,3.84
2023-03-17T02:02:50.116Z,3.69
2023-03-17T02:07:53.615Z,5.29
2023-03-17T02:13:00.139Z,6.10
2023-03-17T02:18:03.667Z,6.54
2023-03-17T02:23:07.441Z,5.35
2023-03-17T02:28:16.461Z,3.60
2023-03-17T02:33:19.128Z,4.73
2023-03-17T02:38:22.134Z,5.86
2023-03-17T02:43:24.663Z,6.39
2023-03-17T02:48:27.268Z,6.62
2023-03-17T02:53:29.792Z,4.81
2023-03-17T02:58:32.351Z,3.79
2023-03-17T03:03:35.065Z,5.22
2023-03-17T03:08:37.722Z,6.16
2023-03-17T03:13:40.506Z,6.59
2023-03-17T03:18:43.026Z,5.17
2023-03-17T03:23:46.026Z,3.34
2023-03-17T03:28:48.812Z,3.51
2023-03-17T03:33:51.578Z,5.04
2023-03-17T03:38:54.159Z,6.18
2023-03-17T03:43:56.859Z,6.74
2023-03-17T03:48:59.433Z,5.02
2023-03-17T03:54:01.932Z,3.12
2023-03-17T03:59:04.517Z,2.91
2023-03-17T04:04:07.302Z,4.93
2023-03-17T04:09:09.796Z,6.15
2023-03-17T04:14:12.668Z,6.59
2023-03-17T04:19:15.261Z,4.73
2023-03-17T04:24:17.807Z,3.92
2023-03-17T04:29:20.463Z,5.61
2023-03-17T04:34:23.394Z,6.62
2023-03-17T04:39:25.934Z,5.56
2023-03-17T04:44:28.485Z,3.56
2023-03-17T04:49:31.295Z,4.17
2023-03-17T04:54:33.834Z,5.91
2023-03-17T04:59:36.701Z,6.45
2023-03-17T05:04:39.267Z,4.48
2023-03-17T05:09:41.951Z,3.84
2023-03-17T05:14:44.473Z,5.70
2023-03-17T05:19:47.116Z,6.84
2023-03-17T05:24:49.666Z,6.00
2023-03-17T05:29:52.502Z,4.07
2023-03-17T05:34:55.062Z,3.88
2023-03-17T05:39:57.718Z,5.97
2023-03-17T05:45:00.258Z,7.21
2023-03-17T05:50:04.728Z,6.00
2023-03-17T05:55:08.422Z,4.30
2023-03-17T06:00:13.454Z,4.30
2023-03-17T06:05:16.160Z,6.44
2023-03-17T06:10:18.730Z,7.34
2023-03-17T06:15:21.368Z,5.66
2023-03-17T06:20:24.083Z,4.29
2023-03-17T06:25:26.931Z,4.95
2023-03-17T06:30:30.732Z,6.90
2023-03-17T06:35:34.419Z,7.68
2023-03-17T06:40:37.388Z,6.10
2023-03-17T06:45:39.974Z,4.86
2023-03-17T06:50:42.627Z,5.22
2023-03-17T06:55:46.024Z,7.59
2023-03-17T07:00:48.905Z,8.74
2023-03-17T07:05:52.030Z,7.17
2023-03-17T07:10:57.212Z,5.74
2023-03-17T07:16:00.669Z,5.93
2023-03-17T07:21:03.620Z,8.13
2023-03-17T07:26:06.229Z,8.84
2023-03-17T07:31:11.519Z,7.24
2023-03-17T07:36:15.655Z,6.94
2023-03-17T07:41:18.204Z,9.01
2023-03-17T07:46:21.392Z,9.76
2023-03-17T07:51:27.662Z,8.44
2023-03-17T07:56:31.253Z,7.38
2023-03-17T08:01:34.147Z,7.86
2023-03-17T08:06:37.292Z,9.55
2023-03-17T08:11:39.790Z,9.16
2023-03-17T08:16:42.794Z,7.62
2023-03-17T08:21:45.609Z,6.67
2023-03-17T08:26:49.233Z,6.92
2023-03-17T08:31:51.900Z,8.85
2023-03-17T08:36:54.642Z,9.63
2023-03-17T08:41:57.413Z,8.62
2023-03-17T08:46:59.965Z,8.15
2023-03-17T08:52:03.466Z,8.94
2023-03-17T08:57:06.096Z,9.68
2023-03-17T09:02:11.875Z,8.77
2023-03-17T09:07:15.072Z,8.39
2023-03-17T09:12:17.654Z,8.21
2023-03-17T09:17:20.275Z,8.15
2023-03-17T09:22:23.190Z,8.15
2023-03-17T09:27:25.780Z,8.17
2023-03-17T09:32:28.359Z,8.24
2023-03-17T09:37:31.081Z,9.02
2023-03-17T09:42:38.557Z,10.52
2023-03-17T09:48:11.987Z,9.78
2023-03-17T09:53:33.948Z,9.26
2023-03-17T09:58:39.205Z,8.99
2023-03-17T10:03:42.716Z,8.89
2023-03-17T10:09:16.996Z,8.89
2023-03-17T10:14:35.217Z,8.91
2023-03-17T10:19:40.640Z,9.20
2023-03-17T10:24:48.854Z,9.65
2023-03-17T10:29:52.852Z,9.70
2023-03-17T10:34:56.522Z,10.97
2023-03-17T10:40:00.951Z,10.63
2023-03-17T10:45:27.775Z,10.39
2023-03-17T10:50:33.579Z,10.24
2023-03-17T10:55:42.843Z,10.28
2023-03-17T11:01:08.222Z,10.40
2023-03-17T11:06:13.636Z,10.39
2023-03-17T11:11:24.702Z,10.24
2023-03-17T11:16:27.360Z,10.30
2023-03-17T11:21:33.908Z,10.41
2023-03-17T11:26:57.503Z,10.43
2023-03-17T11:32:19.708Z,10.37
2023-03-17T11:37:41.491Z,10.37
2023-03-17T11:42:58.567Z,10.51
2023-03-17T11:48:27.672Z,10.59
2023-03-17T11:53:55.604Z,10.64
2023-03-17T11:59:06.570Z,10.65
2023-03-17T12:04:34.294Z,10.73
2023-03-17T12:09:45.594Z,10.86
2023-03-17T12:14:52.278Z,10.76
2023-03-17T12:20:18.216Z,10.65
2023-03-17T12:25:29.426Z,10.53
2023-03-17T12:30:48.361Z,10.52
2023-03-17T12:35:52.054Z,10.62
2023-03-17T12:41:08.630Z,10.75
2023-03-17T12:46:28.835Z,10.70
2023-03-17T12:51:40.731Z,10.65
2023-03-17T12:56:46.411Z,10.86
2023-03-17T13:02:06.042Z,11.05
2023-03-17T13:07:14.985Z,11.19
2023-03-17T13:12:36.120Z,11.21
2023-03-17T13:17:38.686Z,11.17
2023-03-17T13:23:02.116Z,11.26
2023-03-17T13:28:10.929Z,11.23
2023-03-17T13:33:15.149Z,11.09
2023-03-17T13:38:48.577Z,11.06
2023-03-17T13:44:20.512Z,11.07
2023-03-17T13:49:30.286Z,11.12
2023-03-17T13:54:40.596Z,11.13
2023-03-17T14:00:01.595Z,11.19
2023-03-17T14:05:07.621Z,11.19
2023-03-17T14:10:19.522Z,11.11
2023-03-17T14:15:35.021Z,11.06
2023-03-17T14:20:37.629Z,11.10
2023-03-17T14:25:40.259Z,11.32
2023-03-17T14:30:53.130Z,11.74
2023-03-17T14:36:01.834Z,12.24
2023-03-17T14:41:18.261Z,12.64
2023-03-17T14:46:26.477Z,12.44
2023-03-17T14:51:33.210Z,12.29
2023-03-17T14:56:39.879Z,12.42
2023-03-17T15:01:45.522Z,12.43
2023-03-17T15:06:54.968Z,12.33
2023-03-17T15:12:23.129Z,12.20
2023-03-17T15:17:33.352Z,11.88
2023-03-17T15:22:35.828Z,11.41
2023-03-17T15:27:38.333Z,11.07
2023-03-17T15:32:41.272Z,10.89
2023-03-17T15:37:43.943Z,11.01
2023-03-17T15:42:46.798Z,10.68
2023-03-17T15:47:49.404Z,10.21
2023-03-17T15:52:57.976Z,9.77
2023-03-17T15:58:00.629Z,9.37
2023-03-17T16:03:28.884Z,9.02
2023-03-17T16:08:31.432Z,8.63
2023-03-17T16:13:34.001Z,8.42
2023-03-17T16:18:38.175Z,8.17
2023-03-17T16:23:41.040Z,7.74
2023-03-17T16:28:45.508Z,7.31
2023-03-17T16:33:49.085Z,6.90
2023-03-17T16:38:52.025Z,6.52
2023-03-17T16:44:01.122Z,6.17
2023-03-17T16:49:04.964Z,5.88
2023-03-17T16:54:07.765Z,5.66
2023-03-17T16:59:18.427Z,5.46
2023-03-17T17:04:20.936Z,5.30
2023-03-17T17:09:23.445Z,5.13
2023-03-17T17:14:25.955Z,4.99
2023-03-17T17:19:28.586Z,4.84
2023-03-17T17:24:31.088Z,4.68
2023-03-17T17:29:33.640Z,4.56
2023-03-17T17:34:36.150Z,4.44
2023-03-17T17:39:38.720Z,4.36
2023-03-17T17:44:41.241Z,4.31
2023-03-17T17:49:43.850Z,4.28
2023-03-17T17:54:46.377Z,4.27
2023-03-17T17:59:48.922Z,4.26
2023-03-17T18:04:51.645Z,4.23
2023-03-17T18:09:54.334Z,4.20
2023-03-17T18:14:56.970Z,4.19
2023-03-17T18:19:59.508Z,4.18
2023-03-17T18:25:02.032Z,4.17
2023-03-17T18:30:07.467Z,4.18
2023-03-17T18:35:14.816Z,4.17
2023-03-17T18:40:19.140Z,4.15
2023-03-17T18:45:21.920Z,4.14
2023-03-17T18:50:24.488Z,4.94
2023-03-17T18:55:27.008Z,7.54
2023-03-17T19:00:30.022Z,8.11
2023-03-17T19:05:37.538Z,6.60
2023-03-17T19:10:42.818Z,5.66
2023-03-17T19:15:46.031Z,5.09
2023-03-17T19:20:48.637Z,4.72
2023-03-17T19:25:51.169Z,4.48
2023-03-17T19:30:55.868Z,4.30
2023-03-17T19:35:59.987Z,4.16
2023-03-17T19:41:03.486Z,4.08
2023-03-17T19:46:06.177Z,3.99
2023-03-17T19:51:09.363Z,3.90
2023-03-17T19:56:11.978Z,3.83
2023-03-17T20:01:14.692Z,3.77
2023-03-17T20:06:17.315Z,3.72
2023-03-17T20:11:19.833Z,3.69
2023-03-17T20:16:22.739Z,3.68
2023-03-17T20:21:25.497Z,3.66
2023-03-17T20:26:28.724Z,4.50
2023-03-17T20:31:31.991Z,7.12
2023-03-17T20:36:34.668Z,7.80
2023-03-17T20:41:37.162Z,6.27
2023-03-17T20:46:39.892Z,5.35
2023-03-17T20:51:43.705Z,4.81
2023-03-17T20:56:49.404Z,4.47
2023-03-17T21:01:52.048Z,4.21
2023-03-17T21:06:54.611Z,4.00
2023-03-17T21:11:57.124Z,3.88
2023-03-17T21:17:01.290Z,3.81
2023-03-17T21:22:04.518Z,3.77
2023-03-17T21:27:11.063Z,3.75
2023-03-17T21:32:13.646Z,3.76
2023-03-17T21:37:18.254Z,3.82
2023-03-17T21:42:20.739Z,3.87
2023-03-17T21:47:23.223Z,4.84
2023-03-17T21:52:25.987Z,7.40
2023-03-17T21:57:29.512Z,7.43
2023-03-17T22:02:32.016Z,6.01
2023-03-17T22:07:34.531Z,5.25
2023-03-17T22:12:38.254Z,4.80
2023-03-17T22:17:40.788Z,4.51
2023-03-17T22:22:43.317Z,4.29
2023-03-17T22:27:45.933Z,4.13
2023-03-17T22:32:48.890Z,4.03
2023-03-17T22:37:51.399Z,3.95
2023-03-17T22:42:56.497Z,3.87
2023-03-17T22:47:58.975Z,3.81
2023-03-17T22:53:01.688Z,3.75
2023-03-17T22:58:04.246Z,3.69
2023-03-17T23:03:07.144Z,3.65
2023-03-17T23:08:09.620Z,3.60
2023-03-17T23:13:12.605Z,3.57
2023-03-17T23:18:15.497Z,3.53
2023-03-17T23:23:17.979Z,3.50
2023-03-17T23:28:20.575Z,3.48
2023-03-17T23:33:24.038Z,3.42
2023-03-17T23:38:26.634Z,4.21
2023-03-17T23:43:29.170Z,6.70
2023-03-17T23:48:32.689Z,7.06
2023-03-17T23:53:35.492Z,5.51
2023-03-17T23:58:38.141Z,4.58
